Time;durP1;ratioP1;P1;durP2;ratioP2;P2;SDS_P1;SDS_P2;PMS_P1;PMS_P2;Temp;Humidity;BMP_temperature;BMP_pressure;BME280_temperature;BME280_humidity;BME280_pressure;Samples;Min_cycle;Max_cycle;Signal;HPM_P1;HPM_P2
2021/04/21 00:00:15;;;;;;;123.93;44.20;;;;;;;6.32;100.00;101665.03;5163705;28;20018;-80
2021/04/21 00:02:50;;;;;;;125.55;43.47;;;;;;;6.34;100.00;101667.59;5164244;28;20061;-80
2021/04/21 00:05:23;;;;;;;129.48;45.47;;;;;;;6.34;100.00;101671.13;5163936;28;20026;-79
2021/04/21 00:07:55;;;;;;;131.95;43.67;;;;;;;6.33;100.00;101676.56;5163764;28;20069;-80
2021/04/21 00:10:29;;;;;;;126.35;43.70;;;;;;;6.28;100.00;101671.59;5162934;28;20109;-79
2021/04/21 00:13:00;;;;;;;126.38;44.03;;;;;;;6.25;100.00;101668.31;5161633;28;20029;-80
2021/04/21 00:15:31;;;;;;;109.07;41.13;;;;;;;6.18;100.00;101670.59;5167769;28;20041;-79
2021/04/21 00:18:05;;;;;;;114.63;40.33;;;;;;;6.11;100.00;101666.69;5163866;28;20026;-80
2021/04/21 00:20:36;;;;;;;110.90;39.58;;;;;;;6.01;100.00;101665.69;5163167;28;20054;-80
2021/04/21 00:23:11;;;;;;;125.25;41.40;;;;;;;5.92;100.00;101665.47;5163992;28;20034;-79
2021/04/21 00:25:42;;;;;;;121.30;43.33;;;;;;;5.86;100.00;101657.88;5163970;28;20515;-80
2021/04/21 00:28:13;;;;;;;94.47;36.25;;;;;;;5.81;100.00;101662.69;5163633;28;20117;-80
2021/04/21 00:30:44;;;;;;;101.55;36.13;;;;;;;5.74;100.00;101663.28;5162826;28;20112;-79
2021/04/21 00:33:17;;;;;;;108.25;38.13;;;;;;;5.65;100.00;101664.81;5163113;28;20037;-80
2021/04/21 00:35:50;;;;;;;129.82;45.35;;;;;;;5.57;100.00;101657.41;5161892;28;20038;-80
2021/04/21 00:38:22;;;;;;;131.10;44.15;;;;;;;5.54;100.00;101652.31;5163317;28;20030;-80
2021/04/21 00:41:02;;;;;;;138.30;46.55;;;;;;;5.53;100.00;101655.09;5163507;28;20476;-80
2021/04/21 00:43:43;;;;;;;128.70;40.35;;;;;;;5.50;100.00;101658.81;5162543;28;20101;-79
2021/04/21 00:46:19;;;;;;;124.95;43.83;;;;;;;5.46;100.00;101650.19;5162537;28;20042;-80
2021/04/21 00:49:08;;;;;;;112.55;40.30;;;;;;;5.45;100.00;101664.47;5163817;28;20093;-80
2021/04/21 00:51:53;;;;;;;114.95;39.45;;;;;;;5.44;100.00;101659.28;5163287;28;20440;-80
2021/04/21 00:54:34;;;;;;;126.68;42.85;;;;;;;5.42;100.00;101654.06;5163720;28;20311;-80
2021/04/21 00:57:13;;;;;;;122.22;42.28;;;;;;;5.39;100.00;101646.31;5162664;28;20121;-80
2021/04/21 00:59:59;;;;;;;132.18;45.42;;;;;;;5.35;100.00;101646.66;5163247;28;20030;-79
2021/04/21 01:02:35;;;;;;;132.52;43.13;;;;;;;5.30;100.00;101646.97;5163874;28;20038;-80
2021/04/21 01:05:10;;;;;;;141.55;46.05;;;;;;;5.26;100.00;101645.50;5164406;28;20060;-80
2021/04/21 01:07:43;;;;;;;112.57;41.08;;;;;;;5.22;100.00;101630.75;5163143;28;20023;-79
2021/04/21 01:10:15;;;;;;;116.82;38.47;;;;;;;5.17;100.00;101640.84;5163894;28;20022;-80
2021/04/21 01:12:48;;;;;;;92.82;34.75;;;;;;;5.13;100.00;101636.75;5163204;28;20022;-78
2021/04/21 01:15:29;;;;;;;105.43;36.00;;;;;;;5.08;100.00;101633.56;5151834;28;20089;-80
2021/04/21 01:18:02;;;;;;;101.97;36.60;;;;;;;5.04;100.00;101640.06;5164368;28;20436;-79
2021/04/21 01:20:51;;;;;;;124.88;40.47;;;;;;;5.01;100.00;101638.47;5163608;28;20377;-80
2021/04/21 01:23:51;;;;;;;127.18;41.85;;;;;;;4.99;100.00;101637.72;5178609;28;20126;-80
2021/04/21 01:26:47;;;;;;;109.60;39.15;;;;;;;4.95;100.00;101628.28;5164132;28;20198;-80
2021/04/21 01:29:25;;;;;;;128.30;41.00;;;;;;;4.92;100.00;101637.34;5164134;28;20031;-79
2021/04/21 01:32:00;;;;;;;136.60;44.30;;;;;;;4.89;100.00;101634.88;5167080;28;20113;-80
2021/04/21 01:34:34;;;;;;;123.25;40.65;;;;;;;4.86;100.00;101634.25;5171273;28;20031;-80
2021/04/21 01:37:07;;;;;;;;;;;;;;;4.80;100.00;101637.34;5172916;28;20022;-80
2021/04/21 01:39:44;;;;;;;103.95;34.17;;;;;;;4.74;100.00;101635.97;5170775;28;19917;-80
2021/04/21 01:42:17;;;;;;;95.32;34.13;;;;;;;4.70;100.00;101637.16;5169292;28;20030;-79
2021/04/21 01:44:50;;;;;;;95.45;35.95;;;;;;;4.65;100.00;101636.63;5170058;28;20023;-79
2021/04/21 01:47:22;;;;;;;121.38;40.03;;;;;;;4.60;100.00;101633.44;5169279;28;20026;-80
2021/04/21 01:49:58;;;;;;;127.75;42.30;;;;;;;4.56;100.00;101635.47;5168463;28;20026;-80
2021/04/21 01:52:48;;;;;;;124.23;43.73;;;;;;;4.55;100.00;101638.25;5168831;28;20092;-80
2021/04/21 01:55:19;;;;;;;122.10;40.88;;;;;;;4.52;100.00;101635.78;5167792;28;20530;-79
2021/04/21 01:57:57;;;;;;;114.25;38.00;;;;;;;4.47;100.00;101637.91;5169649;28;20018;-80
2021/04/21 02:00:34;;;;;;;131.88;41.92;;;;;;;4.43;100.00;101642.63;5168541;28;20034;-80
2021/04/21 02:03:17;;;;;;;145.93;46.50;;;;;;;4.41;100.00;101642.69;5167595;28;20054;-79
2021/04/21 02:06:04;;;;;;;129.23;43.67;;;;;;;4.40;100.00;101637.50;5155415;28;20030;-79
2021/04/21 02:08:52;;;;;;;132.00;44.47;;;;;;;4.38;100.00;101637.63;5166780;28;20036;-79
2021/04/21 02:11:25;;;;;;;115.03;39.63;;;;;;;4.32;100.00;101639.88;5167040;28;20034;-79
2021/04/21 02:14:03;;;;;;;128.48;42.05;;;;;;;4.26;100.00;101634.94;5167696;28;20101;-79
2021/04/21 02:16:42;;;;;;;142.50;42.97;;;;;;;4.21;100.00;101637.94;5167791;28;20113;-79
2021/04/21 02:19:30;;;;;;;105.32;36.28;;;;;;;4.16;100.00;101643.56;5166212;28;20033;-79
2021/04/21 02:22:26;;;;;;;129.85;42.55;;;;;;;4.11;100.00;101642.16;5157746;28;20026;-79
2021/04/21 02:25:19;;;;;;;119.88;41.63;;;;;;;4.10;100.00;101649.28;5166963;28;20387;-79
2021/04/21 02:28:06;;;;;;;137.25;45.78;;;;;;;4.11;100.00;101648.31;5166784;28;20030;-79
2021/04/21 02:30:40;;;;;;;141.73;46.33;;;;;;;4.11;100.00;101648.31;5166251;28;20471;-80
2021/04/21 02:33:19;;;;;;;134.50;43.10;;;;;;;4.09;100.00;101646.75;5166443;28;20036;-79
2021/04/21 02:35:54;;;;;;;123.60;42.22;;;;;;;4.06;100.00;101647.78;5166341;28;20038;-79
2021/04/21 02:38:32;;;;;;;125.22;43.17;;;;;;;4.05;100.00;101653.22;5164303;28;20040;-79
2021/04/21 02:41:16;;;;;;;120.85;40.50;;;;;;;4.01;100.00;101639.28;5166570;28;20034;-79
2021/04/21 02:43:47;;;;;;;110.97;38.03;;;;;;;3.99;100.00;101650.97;5166336;28;20108;-80
2021/04/21 02:46:23;;;;;;;108.70;37.85;;;;;;;3.90;100.00;101653.28;5165373;28;20565;-79
2021/04/21 02:49:06;;;;;;;109.97;36.75;;;;;;;3.84;100.00;101643.09;5164725;28;20033;-80
2021/04/21 02:52:04;;;;;;;135.70;42.35;;;;;;;3.81;100.00;101645.94;5166055;28;20034;-79
2021/04/21 02:54:46;;;;;;;129.35;40.97;;;;;;;3.83;100.00;101653.81;5155035;28;20085;-79
2021/04/21 02:57:26;;;;;;;117.93;40.03;;;;;;;3.82;100.00;101650.31;5160401;28;20031;-79
2021/04/21 03:00:04;;;;;;;144.75;47.17;;;;;;;3.82;100.00;101649.47;5158266;28;20030;-80
2021/04/21 03:02:39;;;;;;;138.60;43.95;;;;;;;3.82;100.00;101649.47;5167645;28;20030;-79
2021/04/21 03:05:15;;;;;;;138.48;43.70;;;;;;;3.83;100.00;101652.03;5164962;28;20026;-79
2021/04/21 03:08:03;;;;;;;135.88;41.70;;;;;;;3.82;100.00;101642.38;5166108;28;20034;-79
2021/04/21 03:10:42;;;;;;;105.18;35.72;;;;;;;3.79;100.00;101650.53;5165088;28;20061;-79
2021/04/21 03:13:18;;;;;;;94.15;33.83;;;;;;;3.76;100.00;101645.41;5164445;28;20018;-79
2021/04/21 03:15:55;;;;;;;133.55;43.95;;;;;;;3.74;100.00;101651.78;5164061;28;20053;-78
2021/04/21 03:18:28;;;;;;;105.28;37.33;;;;;;;3.73;100.00;101656.25;5168085;28;20431;-79
2021/04/21 03:21:03;;;;;;;131.07;40.70;;;;;;;3.74;100.00;101654.44;5166606;28;20026;-80
2021/04/21 03:23:39;;;;;;;123.22;42.50;;;;;;;3.72;100.00;101659.84;5166117;28;20026;-80
2021/04/21 03:26:11;;;;;;;126.93;41.40;;;;;;;3.71;100.00;101665.25;5166369;28;20030;-79
2021/04/21 03:28:46;;;;;;;120.22;41.70;;;;;;;3.63;100.00;101657.81;5166294;28;20022;-79
2021/04/21 03:31:18;;;;;;;120.43;40.53;;;;;;;3.53;100.00;101651.41;5165912;28;20038;-79
2021/04/21 03:33:54;;;;;;;132.27;43.08;;;;;;;3.52;100.00;101657.69;5165896;28;20431;-79
2021/04/21 03:36:25;;;;;;;129.23;40.58;;;;;;;3.53;100.00;101662.03;5165253;28;20061;-79
2021/04/21 03:38:56;;;;;;;141.30;43.33;;;;;;;3.54;100.00;101658.41;5165169;28;20719;-80
2021/04/21 03:41:27;;;;;;;134.77;43.30;;;;;;;3.55;100.00;101655.66;5165221;28;20034;-80
2021/04/21 03:43:58;;;;;;;129.85;41.35;;;;;;;3.59;100.00;101667.78;5168953;28;20022;-79
2021/04/21 03:46:31;;;;;;;137.07;44.03;;;;;;;3.61;100.00;101671.19;5171212;28;20030;-80
2021/04/21 03:49:03;;;;;;;131.25;44.40;;;;;;;3.66;100.00;101654.09;5177436;28;20484;-81
2021/04/21 03:51:35;;;;;;;134.27;41.60;;;;;;;3.68;100.00;101655.69;5164810;28;20484;-79
2021/04/21 03:54:06;;;;;;;134.70;43.65;;;;;;;3.71;100.00;101650.16;5164398;28;20449;-79
2021/04/21 03:56:41;;;;;;;123.22;40.20;;;;;;;3.73;100.00;101653.59;5163570;28;20040;-79
2021/04/21 03:59:15;;;;;;;121.55;39.95;;;;;;;3.75;100.00;101654.31;5163995;28;20030;-79
2021/04/21 04:01:49;;;;;;;122.25;40.83;;;;;;;3.78;100.00;101656.78;5163915;28;20480;-79
2021/04/21 04:04:21;;;;;;;115.57;39.63;;;;;;;3.77;100.00;101652.44;5164063;28;20032;-79
2021/04/21 04:06:54;;;;;;;115.03;38.30;;;;;;;3.80;100.00;101660.19;5163737;28;20014;-79
2021/04/21 04:09:26;;;;;;;120.18;39.30;;;;;;;3.82;100.00;101666.25;5163549;28;20027;-78
2021/04/21 04:12:04;;;;;;;105.00;37.45;;;;;;;3.85;100.00;101659.88;5163751;28;20030;-79
2021/04/21 04:14:38;;;;;;;131.95;42.30;;;;;;;3.91;100.00;101659.44;5150779;28;20030;-79
2021/04/21 04:17:11;;;;;;;125.80;42.42;;;;;;;3.98;100.00;101662.56;5164143;28;20428;-79
2021/04/21 04:19:44;;;;;;;136.77;42.70;;;;;;;4.06;100.00;101661.06;5163472;28;20049;-80
2021/04/21 04:22:17;;;;;;;123.63;42.75;;;;;;;4.15;100.00;101659.59;5163712;28;20034;-79
2021/04/21 04:24:52;;;;;;;120.88;39.70;;;;;;;4.20;100.00;101657.47;5163694;28;20105;-79
2021/04/21 04:27:26;;;;;;;110.72;38.50;;;;;;;4.27;100.00;101656.13;5163713;28;20392;-79
2021/04/21 04:29:59;;;;;;;101.03;37.13;;;;;;;4.32;100.00;101656.66;5163529;28;20026;-79
2021/04/21 04:32:30;;;;;;;103.60;37.90;;;;;;;4.33;100.00;101658.34;5162953;28;20060;-79
2021/04/21 04:35:01;;;;;;;100.80;36.10;;;;;;;4.38;100.00;101660.69;5163626;28;20425;-79
2021/04/21 04:37:33;;;;;;;120.78;40.47;;;;;;;4.42;100.00;101656.88;5163805;28;20038;-79
2021/04/21 04:40:05;;;;;;;125.88;43.08;;;;;;;4.48;100.00;101667.06;5163571;28;20019;-79
2021/04/21 04:42:37;;;;;;;130.73;43.00;;;;;;;4.53;100.00;101667.59;5163163;28;20026;-79
2021/04/21 04:45:09;;;;;;;124.10;40.65;;;;;;;4.58;100.00;101670.78;5162157;28;20037;-79
2021/04/21 04:47:49;;;;;;;123.82;40.17;;;;;;;4.60;100.00;101668.84;5163340;28;20030;-79
2021/04/21 04:50:22;;;;;;;121.90;38.60;;;;;;;4.66;100.00;101675.53;5163437;28;20488;-79
2021/04/21 04:52:55;;;;;;;107.53;37.72;;;;;;;4.70;100.00;101677.03;5163319;28;20129;-80
2021/04/21 04:55:27;;;;;;;121.80;40.45;;;;;;;4.74;100.00;101677.66;5163043;28;20125;-79
2021/04/21 04:57:57;;;;;;;124.05;41.03;;;;;;;4.80;100.00;101678.06;5163593;28;20411;-79
2021/04/21 05:00:28;;;;;;;118.40;43.38;;;;;;;4.85;100.00;101678.59;5163358;28;20026;-79
2021/04/21 05:03:14;;;;;;;124.90;42.45;;;;;;;4.93;100.00;101678.91;5163574;28;20075;-79
2021/04/21 05:05:45;;;;;;;123.25;42.72;;;;;;;4.99;100.00;101685.59;5150575;28;20046;-79
2021/04/21 05:08:17;;;;;;;110.53;39.80;;;;;;;5.04;100.00;101688.78;5164686;28;20448;-79
2021/04/21 05:11:01;;;;;;;119.93;40.78;;;;;;;5.08;100.00;101692.94;5167145;28;20088;-78
2021/04/21 05:13:40;;;;;;;132.95;42.45;;;;;;;5.12;100.00;101698.84;5166957;28;20022;-79
2021/04/21 05:16:12;;;;;;;140.82;45.20;;;;;;;5.19;100.00;101710.78;5166941;28;20073;-80
2021/04/21 05:18:46;;;;;;;139.65;43.80;;;;;;;5.26;100.00;101701.38;5167153;28;20026;-79
2021/04/21 05:21:46;;;;;;;129.40;45.07;;;;;;;5.35;100.00;101708.69;5166509;28;20331;-78
2021/04/21 05:24:36;;;;;;;122.88;41.63;;;;;;;5.42;100.00;101712.63;5167145;28;20313;-78
2021/04/21 05:27:48;;;;;;;115.40;39.75;;;;;;;5.46;100.00;101711.41;5167040;28;20022;-78
2021/04/21 05:30:29;;;;;;;115.95;40.20;;;;;;;5.51;100.00;101718.22;5166935;28;20034;-78
2021/04/21 05:33:22;;;;;;;108.97;38.47;;;;;;;5.52;100.00;101722.56;5166815;28;20034;-79
2021/04/21 05:36:29;;;;;;;120.85;41.70;;;;;;;5.55;100.00;101723.22;5166850;28;20088;-79
2021/04/21 05:39:26;;;;;;;111.43;39.15;;;;;;;5.63;100.00;101725.31;5166877;28;20500;-79
2021/04/21 05:42:26;;;;;;;112.88;40.05;;;;;;;5.73;100.00;101729.00;5167168;28;20535;-79
2021/04/21 05:45:19;;;;;;;122.70;42.72;;;;;;;5.80;100.00;101721.41;5157158;28;20056;-79
2021/04/21 05:48:14;;;;;;;115.88;40.35;;;;;;;5.89;100.00;101731.38;5166575;28;20121;-79
2021/04/21 05:51:12;;;;;;;118.70;42.40;;;;;;;5.96;100.00;101728.16;5167074;28;20026;-80
2021/04/21 05:54:02;;;;;;;108.88;39.88;;;;;;;6.09;100.00;101719.25;5165601;28;20074;-79
2021/04/21 05:56:52;;;;;;;115.93;39.45;;;;;;;6.22;100.00;101728.00;5166461;28;20027;-79
2021/04/21 05:59:34;;;;;;;106.78;37.45;;;;;;;6.36;100.00;101732.28;5165167;28;20030;-79
2021/04/21 06:02:05;;;;;;;117.60;40.10;;;;;;;6.48;100.00;101726.88;5165749;28;20018;-80
2021/04/21 06:04:36;;;;;;;106.68;39.92;;;;;;;6.72;100.00;101736.59;5166277;28;20026;-80
2021/04/21 06:07:09;;;;;;;109.50;39.05;;;;;;;7.26;100.00;101735.88;5166430;28;20026;-80
2021/04/21 06:09:39;;;;;;;96.15;36.80;;;;;;;7.79;100.00;101730.66;5166047;28;20041;-80
2021/04/21 06:12:13;;;;;;;89.63;35.63;;;;;;;8.26;100.00;101733.84;5166433;28;20392;-79
2021/04/21 06:14:44;;;;;;;89.10;38.15;;;;;;;8.48;100.00;101735.56;5165789;28;20038;-76
2021/04/21 06:17:14;;;;;;;100.30;37.88;;;;;;;8.50;100.00;101738.97;5165935;28;20028;-76
2021/04/21 06:19:45;;;;;;;104.80;39.75;;;;;;;8.57;100.00;101740.97;5164756;28;20019;-75
2021/04/21 06:22:26;;;;;;;96.95;38.50;;;;;;;8.38;100.00;101740.84;5165746;28;20033;-76
2021/04/21 06:25:08;;;;;;;106.63;40.03;;;;;;;8.42;100.00;101741.44;5165397;28;20033;-76
2021/04/21 06:27:39;;;;;;;106.25;40.47;;;;;;;8.59;100.00;101742.72;5165581;28;20512;-76
2021/04/21 06:30:10;;;;;;;101.07;40.38;;;;;;;8.72;100.00;101746.84;5165984;28;20377;-76
2021/04/21 06:32:41;;;;;;;94.07;41.08;;;;;;;8.92;100.00;101733.56;5165898;28;20026;-76
2021/04/21 06:35:11;;;;;;;95.00;38.97;;;;;;;9.09;100.00;101746.34;5165514;28;20490;-76
2021/04/21 06:37:42;;;;;;;94.63;37.53;;;;;;;9.25;100.00;101740.47;5165298;28;20053;-75
2021/04/21 06:40:13;;;;;;;90.03;37.75;;;;;;;9.48;100.00;101746.44;5165432;28;20025;-76
2021/04/21 06:42:46;;;;;;;82.43;35.88;;;;;;;9.74;100.00;101749.47;5165369;28;20026;-78
2021/04/21 06:45:23;;;;;;;78.28;35.40;;;;;;;9.92;100.00;101747.78;5166418;28;20065;-80
2021/04/21 06:47:54;;;;;;;79.45;35.60;;;;;;;10.09;100.00;101749.78;5165033;28;20508;-79
2021/04/21 06:50:29;;;;;;;75.50;33.78;;;;;;;10.31;100.00;101746.00;5165415;28;20034;-79
2021/04/21 06:53:02;;;;;;;71.70;33.97;;;;;;;10.42;100.00;101750.34;5165209;28;20102;-79
2021/04/21 06:55:35;;;;;;;74.10;34.88;;;;;;;10.39;100.00;101753.31;5165485;28;20412;-81
2021/04/21 06:58:17;;;;;;;78.47;33.83;;;;;;;10.71;100.00;101753.00;5165617;28;20023;-81
2021/04/21 07:00:48;;;;;;;69.90;32.88;;;;;;;10.73;100.00;101753.69;5165565;28;20137;-79
2021/04/21 07:03:19;;;;;;;74.03;35.50;;;;;;;10.81;100.00;101758.34;5165769;28;20478;-79
2021/04/21 07:05:49;;;;;;;74.50;34.83;;;;;;;10.95;100.00;101765.94;5166886;28;20089;-79
2021/04/21 07:08:28;;;;;;;76.90;32.92;;;;;;;10.87;100.00;101758.59;5164933;28;20085;-79
2021/04/21 07:11:01;;;;;;;67.88;32.47;;;;;;;11.03;100.00;101760.66;5165351;28;20387;-82
2021/04/21 07:13:44;;;;;;;67.20;31.80;;;;;;;11.14;100.00;101755.13;5159898;28;20484;-81
2021/04/21 07:16:24;;;;;;;70.22;30.80;;;;;;;11.16;100.00;101757.66;5159384;28;20034;-80
2021/04/21 07:19:01;;;;;;;70.60;30.25;;;;;;;11.23;100.00;101763.25;5165256;28;20022;-82
2021/04/21 07:21:33;;;;;;;64.40;32.25;;;;;;;11.23;100.00;101764.09;5165060;28;20072;-80
2021/04/21 07:24:05;;;;;;;65.88;30.73;;;;;;;11.36;100.00;101766.47;5165016;28;20084;-80
2021/04/21 07:26:43;;;;;;;60.75;30.45;;;;;;;11.40;100.00;101770.53;5164757;28;20141;-79
2021/04/21 07:29:23;;;;;;;61.45;29.30;;;;;;;11.53;100.00;101771.03;5164870;28;20022;-79
2021/04/21 07:31:53;;;;;;;72.50;29.05;;;;;;;11.61;100.00;101773.81;5164613;28;20034;-82
2021/04/21 07:34:28;;;;;;;64.85;28.58;;;;;;;11.68;100.00;101761.44;5165039;28;20447;-81
2021/04/21 07:37:00;;;;;;;63.58;28.08;;;;;;;11.65;100.00;101772.53;5165999;28;20082;-80
2021/04/21 07:39:40;;;;;;;58.88;27.70;;;;;;;11.71;100.00;101776.44;5165063;28;20357;-80
2021/04/21 07:42:16;;;;;;;65.97;29.85;;;;;;;11.54;100.00;101778.09;5164921;28;20026;-78
2021/04/21 07:44:51;;;;;;;59.15;27.35;;;;;;;11.82;100.00;101778.09;5165311;28;20027;-80
2021/04/21 07:47:24;;;;;;;57.42;27.33;;;;;;;11.82;100.00;101772.72;5164329;28;20030;-80
2021/04/21 07:49:59;;;;;;;54.55;26.13;;;;;;;11.99;100.00;101782.63;5165323;28;20420;-79
2021/04/21 07:52:31;;;;;;;;;;;;;;;12.09;100.00;101786.09;5169103;28;20034;-79
2021/04/21 07:55:07;;;;;;;60.65;27.30;;;;;;;12.24;100.00;101785.56;5169890;28;19916;-79
2021/04/21 07:57:39;;;;;;;51.72;24.92;;;;;;;12.40;100.00;101791.97;5168713;28;20096;-79
2021/04/21 08:00:22;;;;;;;59.28;26.55;;;;;;;12.47;100.00;101785.94;5171309;28;20091;-79
2021/04/21 08:02:53;;;;;;;55.10;26.58;;;;;;;12.57;100.00;101789.41;5170833;28;20045;-79
2021/04/21 08:05:24;;;;;;;51.92;24.65;;;;;;;12.66;100.00;101792.00;5171281;28;20018;-79
2021/04/21 08:07:56;;;;;;;59.40;25.67;;;;;;;12.73;100.00;101788.66;5166284;28;20451;-78
2021/04/21 08:10:29;;;;;;;64.28;26.13;;;;;;;12.70;100.00;101787.13;5169530;28;20523;-80
2021/04/21 08:13:01;;;;;;;55.67;24.77;;;;;;;12.97;100.00;101788.84;5170916;28;20045;-81
2021/04/21 08:15:34;;;;;;;50.25;23.65;;;;;;;13.11;100.00;101790.09;5170269;28;20032;-81
2021/04/21 08:18:21;;;;;;;52.42;23.98;;;;;;;13.39;100.00;101790.75;5169573;28;20105;-79
2021/04/21 08:20:53;;;;;;;45.25;22.02;;;;;;;13.59;100.00;101785.94;5170074;28;20026;-80
2021/04/21 08:23:23;;;;;;;51.80;22.27;;;;;;;13.64;100.00;101786.31;5170060;28;20029;-80
2021/04/21 08:25:54;;;;;;;50.03;22.45;;;;;;;13.80;100.00;101790.91;5168336;28;20375;-82
2021/04/21 08:28:24;;;;;;;42.45;19.58;;;;;;;13.80;100.00;101791.75;5167541;28;20030;-80
2021/04/21 08:30:58;;;;;;;41.92;21.92;;;;;;;13.85;99.92;101793.94;5168493;28;20542;-79
2021/04/21 08:33:31;;;;;;;48.95;22.15;;;;;;;13.73;86.72;101796.97;5169229;28;20037;-79
2021/04/21 08:36:01;;;;;;;48.42;21.48;;;;;;;13.65;96.58;101796.06;5169090;28;20108;-79
2021/04/21 08:38:31;;;;;;;42.72;20.17;;;;;;;13.60;81.59;101791.16;5169678;28;20424;-79
2021/04/21 08:41:03;;;;;;;46.50;21.35;;;;;;;13.78;92.18;101799.16;5169540;28;20022;-79
2021/04/21 08:43:36;;;;;;;38.92;19.65;;;;;;;13.88;90.16;101805.25;5166501;28;20105;-81
2021/04/21 08:46:07;;;;;;;39.83;19.42;;;;;;;14.01;80.36;101799.41;5165550;28;20113;-78
2021/04/21 08:48:39;;;;;;;45.47;20.08;;;;;;;14.00;80.41;101803.09;5167376;28;20449;-78
2021/04/21 08:51:18;;;;;;;38.97;19.17;;;;;;;14.28;78.57;101800.13;5169979;28;20030;-78
2021/04/21 08:53:52;;;;;;;36.55;19.70;;;;;;;14.67;81.88;101805.72;5170142;28;20452;-78
2021/04/21 08:56:24;;;;;;;35.03;16.85;;;;;;;15.02;77.10;101804.50;5170112;28;20349;-78
2021/04/21 08:58:56;;;;;;;35.25;17.85;;;;;;;15.14;83.03;101811.22;5169611;28;20356;-78
2021/04/21 09:01:26;;;;;;;31.73;15.73;;;;;;;15.44;74.05;101815.00;5168650;28;20037;-78
2021/04/21 09:03:57;;;;;;;36.65;16.85;;;;;;;15.61;69.44;101810.34;5169700;28;20023;-78
2021/04/21 09:06:28;;;;;;;25.45;14.60;;;;;;;15.65;73.67;101808.19;5169632;28;20041;-78
2021/04/21 09:08:59;;;;;;;30.73;13.85;;;;;;;15.77;65.30;101804.94;5167771;28;20106;-78
2021/04/21 09:11:30;;;;;;;26.13;13.77;;;;;;;15.49;64.77;101809.91;5168068;28;20101;-78
2021/04/21 09:14:01;;;;;;;28.35;14.25;;;;;;;15.32;64.71;101813.72;5160435;28;20077;-78
2021/04/21 09:16:31;;;;;;;32.00;14.82;;;;;;;15.25;66.39;101808.13;5165618;28;20022;-79
2021/04/21 09:19:09;;;;;;;31.85;13.68;;;;;;;15.23;65.57;101812.88;5164451;28;20022;-78
2021/04/21 09:21:40;;;;;;;30.02;13.68;;;;;;;15.01;68.96;101819.88;5178526;28;20535;-81
2021/04/21 09:24:24;;;;;;;31.40;13.82;;;;;;;15.03;64.64;101816.97;5166437;28;20053;-78
2021/04/21 09:26:54;;;;;;;26.83;14.13;;;;;;;15.34;74.48;101814.38;5167614;28;20503;-78
2021/04/21 09:29:33;;;;;;;31.80;13.80;;;;;;;15.34;61.14;101824.34;5166066;28;20022;-78
2021/04/21 09:32:07;;;;;;;31.25;14.15;;;;;;;15.45;62.41;101823.94;5167260;28;20339;-78
2021/04/21 09:34:53;;;;;;;25.63;13.30;;;;;;;15.82;61.22;101819.78;5166879;28;20447;-78
2021/04/21 09:37:25;;;;;;;32.42;14.25;;;;;;;15.71;63.03;101824.56;5163909;28;20038;-78
2021/04/21 09:39:55;;;;;;;33.33;14.68;;;;;;;15.74;63.17;101824.19;5162795;28;20018;-80
2021/04/21 09:42:26;;;;;;;29.00;15.77;;;;;;;15.91;61.38;101826.81;5163955;28;20053;-78
2021/04/21 09:44:57;;;;;;;29.02;13.60;;;;;;;15.93;60.75;101828.34;5163371;28;20061;-78
2021/04/21 09:47:28;;;;;;;28.35;13.65;;;;;;;15.96;58.58;101827.97;5162886;28;20077;-78
2021/04/21 09:49:59;;;;;;;26.65;13.38;;;;;;;15.96;60.92;101827.13;5163395;28;20045;-78
2021/04/21 09:52:30;;;;;;;27.25;13.93;;;;;;;15.85;62.25;101827.53;5163329;28;20031;-79
2021/04/21 09:55:00;;;;;;;27.65;13.45;;;;;;;15.75;60.34;101819.63;5166255;28;20392;-78
2021/04/21 09:57:33;;;;;;;26.40;13.40;;;;;;;15.83;58.50;101832.28;5167551;28;20026;-79
2021/04/21 10:00:07;;;;;;;29.42;14.27;;;;;;;16.23;58.40;101813.09;5165343;28;20488;-78
2021/04/21 10:02:39;;;;;;;28.83;15.00;;;;;;;16.24;58.94;101822.06;5166669;28;20077;-79
2021/04/21 10:05:21;;;;;;;31.23;14.45;;;;;;;16.34;57.37;101816.41;5165356;28;20125;-78
2021/04/21 10:08:10;;;;;;;28.30;14.65;;;;;;;16.42;56.80;101824.47;5165885;28;20531;-79
2021/04/21 10:10:44;;;;;;;25.20;13.80;;;;;;;16.47;56.04;101808.53;5153132;28;20481;-79
2021/04/21 10:13:17;;;;;;;26.38;14.30;;;;;;;16.22;55.00;101822.25;5161725;28;20027;-79
2021/04/21 10:15:48;;;;;;;28.40;13.70;;;;;;;16.29;57.46;101825.91;5156417;28;20034;-78
2021/04/21 10:18:19;;;;;;;24.48;14.02;;;;;;;16.67;56.32;101828.69;5170770;28;20022;-77
2021/04/21 10:20:49;;;;;;;29.70;14.43;;;;;;;17.00;53.83;101822.97;5167854;28;20025;-80
2021/04/21 10:23:20;;;;;;;28.33;14.43;;;;;;;16.84;50.26;101829.38;5168384;28;20120;-80
2021/04/21 10:25:51;;;;;;;32.58;15.13;;;;;;;16.55;54.26;101824.69;5168568;28;20460;-80
2021/04/21 10:28:22;;;;;;;27.60;14.77;;;;;;;16.70;54.09;101822.03;5168653;28;20026;-80
2021/04/21 10:30:54;;;;;;;29.33;14.65;;;;;;;16.89;51.41;101823.41;5168197;28;20030;-82
2021/04/21 10:33:26;;;;;;;30.73;15.07;;;;;;;16.80;51.00;101823.47;5170058;28;20045;-82
2021/04/21 10:35:57;;;;;;;28.40;14.90;;;;;;;17.14;54.53;101826.72;5167931;28;20531;-83
2021/04/21 10:38:29;;;;;;;27.08;13.65;;;;;;;17.27;53.78;101818.78;5152829;28;20054;-82
2021/04/21 10:41:21;;;;;;;30.38;13.90;;;;;;;17.57;52.19;101833.16;5168946;28;20030;-82
2021/04/21 10:44:07;;;;;;;24.52;12.88;;;;;;;17.73;52.28;101818.59;5170308;28;20424;-82
2021/04/21 10:46:58;;;;;;;29.13;14.73;;;;;;;17.67;52.01;101825.59;5170287;28;20033;-82
2021/04/21 10:49:41;;;;;;;23.75;13.32;;;;;;;17.38;51.03;101821.03;5169479;28;20030;-82
2021/04/21 10:52:16;;;;;;;31.20;15.35;;;;;;;17.82;49.66;101817.44;5168523;28;20022;-81
2021/04/21 10:54:48;;;;;;;;;;;;;;;17.83;49.14;101824.56;5152475;28;20058;-82
2021/04/21 10:57:21;;;;;;;27.35;13.80;;;;;;;17.76;47.40;101810.91;5167135;28;20291;-82
2021/04/21 11:00:17;;;;;;;33.83;13.07;;;;;;;17.59;48.16;101826.53;5166224;28;20026;-82
2021/04/21 11:02:59;;;;;;;27.50;13.70;;;;;;;17.47;49.22;101827.19;5167231;28;20113;-82
2021/04/21 11:05:36;;;;;;;24.27;13.98;;;;;;;17.67;49.58;101819.31;5181565;28;20029;-82
2021/04/21 11:08:08;;;;;;;31.23;15.55;;;;;;;17.35;49.00;101822.25;5165844;28;20037;-82
2021/04/21 11:10:41;;;;;;;31.48;16.33;;;;;;;17.35;52.54;101824.94;5164014;28;20415;-82
2021/04/21 11:13:14;;;;;;;29.50;16.17;;;;;;;17.48;50.94;101820.75;5164911;28;20029;-82
2021/04/21 11:15:47;;;;;;;29.92;16.58;;;;;;;17.64;52.74;101825.13;5169359;28;20023;-81
2021/04/21 11:18:27;;;;;;;38.55;19.10;;;;;;;17.53;51.67;101830.00;5169669;28;20030;-81
2021/04/21 11:21:02;;;;;;;31.67;17.02;;;;;;;17.73;49.95;101808.59;5168942;28;20033;-82
2021/04/21 11:23:55;;;;;;;35.70;18.85;;;;;;;17.05;48.09;101834.09;5157703;28;20072;-81
2021/04/21 11:26:27;;;;;;;33.63;17.88;;;;;;;17.38;49.25;101823.75;5169132;28;20037;-81
2021/04/21 11:29:08;;;;;;;32.92;17.80;;;;;;;17.55;47.51;101825.22;5168948;28;20100;-82
2021/04/21 11:31:42;;;;;;;30.98;17.10;;;;;;;17.55;51.13;101825.22;5153233;28;20468;-82
2021/04/21 11:34:13;;;;;;;34.33;19.10;;;;;;;17.52;49.06;101824.75;5169760;28;20061;-82
2021/04/21 11:36:50;;;;;;;31.00;17.05;;;;;;;18.08;50.35;101819.66;5169938;28;20022;-83
2021/04/21 11:39:40;;;;;;;37.08;18.05;;;;;;;17.84;49.17;101824.38;5168860;28;20049;-82
2021/04/21 11:42:36;;;;;;;30.55;18.58;;;;;;;17.60;50.32;101825.50;5169476;28;20419;-82
2021/04/21 11:45:14;;;;;;;29.05;16.67;;;;;;;17.35;48.19;101821.41;5168880;28;20027;-82